createdAt,value
2022-07-28T00:00:44.535Z,57.00
2022-07-28T00:03:11.416Z,57.10
2022-07-28T00:05:38.205Z,57.10
2022-07-28T00:08:05.455Z,57.20
2022-07-28T00:10:32.444Z,57.30
2022-07-28T00:12:59.983Z,57.20
2022-07-28T00:15:27.402Z,57.30
2022-07-28T00:17:54.289Z,57.20
2022-07-28T00:20:21.422Z,57.20
2022-07-28T00:22:48.313Z,57.20
2022-07-28T00:25:15.638Z,57.20
2022-07-28T00:27:42.418Z,57.30
2022-07-28T00:30:10.085Z,57.30
2022-07-28T00:32:37.720Z,57.40
2022-07-28T00:35:05.084Z,57.40
2022-07-28T00:37:34.989Z,57.60
2022-07-28T00:40:02.266Z,57.70
2022-07-28T00:42:29.028Z,57.70
2022-07-28T00:44:55.788Z,57.90
2022-07-28T00:47:22.541Z,57.80
2022-07-28T00:49:50.396Z,57.90
2022-07-28T00:52:18.381Z,58.60
2022-07-28T00:54:45.253Z,58.00
2022-07-28T00:57:12.052Z,58.00
2022-07-28T00:59:38.810Z,58.00
2022-07-28T01:02:05.767Z,57.90
2022-07-28T01:04:32.594Z,58.00
2022-07-28T01:07:17.269Z,57.90
2022-07-28T01:10:21.893Z,57.90
2022-07-28T01:13:14.060Z,57.90
2022-07-28T01:15:41.248Z,57.90
2022-07-28T01:18:17.026Z,58.00
2022-07-28T01:20:50.068Z,58.00
2022-07-28T01:23:32.216Z,58.20
2022-07-28T01:26:21.038Z,58.30
2022-07-28T01:29:06.651Z,58.40
2022-07-28T01:31:51.533Z,58.60
2022-07-28T01:34:20.533Z,58.60
2022-07-28T01:36:52.489Z,58.70
2022-07-28T01:39:19.259Z,58.80
2022-07-28T01:41:45.996Z,58.80
2022-07-28T01:44:15.792Z,58.80
2022-07-28T01:46:43.195Z,58.70
2022-07-28T01:49:10.232Z,58.60
2022-07-28T01:51:37.214Z,58.60
2022-07-28T01:54:04.564Z,58.70
2022-07-28T01:56:32.175Z,58.70
2022-07-28T01:59:00.470Z,58.50
2022-07-28T02:01:27.287Z,58.60
2022-07-28T02:03:54.395Z,58.60
2022-07-28T02:06:21.179Z,58.70
2022-07-28T02:08:48.064Z,58.80
2022-07-28T02:11:33.321Z,58.80
2022-07-28T02:14:00.120Z,58.80
2022-07-28T02:16:26.937Z,58.90
2022-07-28T02:18:54.494Z,58.90
2022-07-28T02:21:22.494Z,58.90
2022-07-28T02:23:49.319Z,58.90
2022-07-28T02:26:16.565Z,58.80
2022-07-28T02:28:46.476Z,58.60
2022-07-28T02:31:18.495Z,58.70
2022-07-28T02:33:59.910Z,58.60
2022-07-28T02:36:32.872Z,58.60
2022-07-28T02:39:03.411Z,58.60
2022-07-28T02:41:30.726Z,58.70
2022-07-28T02:44:03.715Z,58.80
2022-07-28T02:46:38.306Z,58.90
2022-07-28T02:49:14.381Z,59.00
2022-07-28T02:51:41.343Z,59.10
2022-07-28T02:54:08.242Z,59.10
2022-07-28T02:56:35.020Z,59.10
2022-07-28T02:59:01.853Z,59.10
2022-07-28T03:01:28.671Z,59.10
2022-07-28T03:03:56.408Z,59.20
2022-07-28T03:06:26.424Z,59.20
2022-07-28T03:08:56.924Z,59.10
2022-07-28T03:11:23.763Z,59.00
2022-07-28T03:13:50.519Z,59.00
2022-07-28T03:16:17.358Z,59.10
2022-07-28T03:18:44.137Z,59.10
2022-07-28T03:21:10.933Z,59.10
2022-07-28T03:23:41.257Z,59.10
2022-07-28T03:26:29.051Z,59.20
2022-07-28T03:28:55.840Z,60.00
2022-07-28T03:31:22.638Z,59.30
2022-07-28T03:33:49.442Z,59.50
2022-07-28T03:36:18.879Z,59.40
2022-07-28T03:38:54.133Z,59.50
2022-07-28T03:41:20.910Z,59.50
2022-07-28T03:43:47.674Z,59.50
2022-07-28T03:46:14.499Z,59.50
2022-07-28T03:48:41.417Z,59.50
2022-07-28T03:51:08.287Z,59.50
2022-07-28T03:53:35.099Z,59.50
2022-07-28T03:56:03.359Z,59.70
2022-07-28T03:58:30.781Z,59.80
2022-07-28T04:00:57.981Z,59.90
2022-07-28T04:03:37.595Z,59.50
2022-07-28T04:06:10.767Z,59.60
2022-07-28T04:08:37.596Z,59.70
2022-07-28T04:11:04.414Z,59.70
2022-07-28T04:13:32.297Z,59.70
2022-07-28T04:16:00.079Z,59.80
2022-07-28T04:18:26.896Z,59.80
2022-07-28T04:20:53.656Z,59.90
2022-07-28T04:23:21.057Z,59.80
2022-07-28T04:25:48.015Z,59.90
2022-07-28T04:28:15.753Z,60.00
2022-07-28T04:30:43.989Z,59.80
2022-07-28T04:33:12.154Z,59.80
2022-07-28T04:35:39.042Z,59.90
2022-07-28T04:38:05.994Z,60.10
2022-07-28T04:40:34.428Z,60.00
2022-07-28T04:43:01.493Z,59.90
2022-07-28T04:45:28.333Z,59.90
2022-07-28T04:47:55.124Z,60.00
2022-07-28T04:50:21.957Z,60.40
2022-07-28T04:52:50.149Z,60.10
2022-07-28T04:55:17.732Z,60.10
2022-07-28T04:57:44.708Z,60.20
2022-07-28T05:00:13.842Z,60.30
2022-07-28T05:02:44.785Z,60.40
2022-07-28T05:05:12.074Z,60.40
2022-07-28T05:07:39.287Z,60.40
2022-07-28T05:10:08.548Z,60.50
2022-07-28T05:12:35.358Z,60.40
2022-07-28T05:15:02.133Z,60.20
2022-07-28T05:17:28.919Z,60.40
2022-07-28T05:19:55.686Z,60.50
2022-07-28T05:22:22.489Z,60.60
2022-07-28T05:24:49.340Z,60.50
2022-07-28T05:27:16.123Z,60.40
2022-07-28T05:29:47.035Z,61.20
2022-07-28T05:32:17.103Z,60.50
2022-07-28T05:34:45.371Z,60.60
2022-07-28T05:37:12.314Z,60.60
2022-07-28T05:39:39.237Z,60.70
2022-07-28T05:42:06.240Z,61.50
2022-07-28T05:44:37.993Z,60.70
2022-07-28T05:47:05.803Z,60.70
2022-07-28T05:49:32.662Z,60.90
2022-07-28T05:51:59.530Z,60.90
2022-07-28T05:54:26.360Z,60.90
2022-07-28T05:56:53.155Z,60.90
2022-07-28T05:59:19.961Z,61.10
2022-07-28T06:01:46.796Z,61.20
2022-07-28T06:04:29.683Z,62.10
2022-07-28T06:06:56.695Z,61.30
2022-07-28T06:09:23.484Z,61.00
2022-07-28T06:11:53.256Z,61.00
2022-07-28T06:14:20.021Z,61.00
2022-07-28T06:16:51.290Z,61.00
2022-07-28T06:19:18.946Z,61.80
2022-07-28T06:21:45.759Z,61.00
2022-07-28T06:24:12.906Z,61.20
2022-07-28T06:26:44.445Z,61.10
2022-07-28T06:29:12.153Z,61.10
2022-07-28T06:31:39.307Z,61.30
2022-07-28T06:34:06.421Z,61.10
2022-07-28T06:36:33.210Z,61.40
2022-07-28T06:39:00.007Z,61.70
2022-07-28T06:41:26.828Z,61.70
2022-07-28T06:43:53.601Z,62.10
2022-07-28T06:46:20.577Z,61.90
2022-07-28T06:48:47.510Z,61.30
2022-07-28T06:51:18.945Z,61.40
2022-07-28T06:53:48.203Z,61.50
2022-07-28T06:56:15.805Z,61.50
2022-07-28T06:58:43.991Z,61.50
2022-07-28T07:01:15.011Z,61.60
2022-07-28T07:03:42.467Z,61.60
2022-07-28T07:06:10.815Z,61.60
2022-07-28T07:08:38.091Z,61.60
2022-07-28T07:11:04.872Z,61.70
2022-07-28T07:13:32.980Z,61.90
2022-07-28T07:16:00.075Z,61.80
2022-07-28T07:18:27.049Z,62.20
2022-07-28T07:20:54.778Z,62.20
2022-07-28T07:23:21.762Z,62.20
2022-07-28T07:25:48.537Z,62.20
2022-07-28T07:28:15.360Z,61.90
2022-07-28T07:30:42.159Z,61.70
2022-07-28T07:33:10.356Z,61.70
2022-07-28T07:35:38.075Z,61.80
2022-07-28T07:38:05.142Z,61.80
2022-07-28T07:40:32.178Z,61.80
2022-07-28T07:42:59.273Z,61.90
2022-07-28T07:45:26.192Z,61.90
2022-07-28T07:47:52.965Z,61.90
2022-07-28T07:50:19.744Z,61.90
2022-07-28T07:52:46.560Z,62.00
2022-07-28T07:55:13.340Z,61.90
2022-07-28T07:57:40.680Z,62.30
2022-07-28T08:00:08.125Z,62.40
2022-07-28T08:02:54.931Z,61.00
2022-07-28T08:05:21.729Z,52.50
2022-07-28T08:08:02.067Z,53.20
2022-07-28T08:10:29.256Z,53.60
2022-07-28T08:12:56.073Z,53.50
2022-07-28T08:15:23.350Z,53.90
2022-07-28T08:17:50.258Z,52.50
2022-07-28T08:20:17.094Z,53.00
2022-07-28T08:22:50.993Z,53.90
2022-07-28T08:25:19.981Z,53.20
2022-07-28T08:27:46.942Z,53.80
2022-07-28T08:30:23.073Z,52.50
2022-07-28T08:32:56.833Z,53.20
2022-07-28T08:35:33.660Z,54.00
2022-07-28T08:38:01.529Z,52.70
2022-07-28T08:40:28.571Z,52.60
2022-07-28T08:43:16.794Z,52.40
2022-07-28T08:45:44.506Z,52.60
2022-07-28T08:48:12.218Z,52.40
2022-07-28T08:50:39.478Z,52.30
2022-07-28T08:53:06.668Z,52.20
2022-07-28T08:55:34.928Z,51.60
2022-07-28T08:58:01.690Z,52.10
2022-07-28T09:00:28.660Z,52.30
2022-07-28T09:02:55.653Z,52.20
2022-07-28T09:05:23.554Z,52.10
2022-07-28T09:07:54.365Z,51.70
2022-07-28T09:10:21.996Z,52.00
2022-07-28T09:12:48.831Z,51.90
2022-07-28T09:15:15.944Z,51.40
2022-07-28T09:17:43.170Z,52.00
2022-07-28T09:20:11.557Z,52.20
2022-07-28T09:22:55.414Z,52.50
2022-07-28T09:25:22.746Z,52.20
2022-07-28T09:27:49.534Z,52.90
2022-07-28T09:30:16.286Z,53.00
2022-07-28T09:32:43.050Z,52.70
2022-07-28T09:35:22.029Z,52.50
2022-07-28T09:37:58.551Z,52.30
2022-07-28T09:40:25.575Z,52.40
2022-07-28T09:42:55.638Z,53.00
2022-07-28T09:45:27.343Z,54.30
2022-07-28T09:48:13.993Z,54.70
2022-07-28T09:50:41.611Z,53.20
2022-07-28T09:53:21.671Z,53.90
2022-07-28T09:55:59.648Z,52.40
2022-07-28T09:58:27.237Z,52.50
2022-07-28T10:01:08.215Z,51.90
2022-07-28T10:03:39.398Z,51.70
2022-07-28T10:06:09.480Z,52.20
2022-07-28T10:08:41.871Z,51.20
2022-07-28T10:11:09.611Z,51.50
2022-07-28T10:13:37.371Z,51.00
2022-07-28T10:16:13.451Z,50.70
2022-07-28T10:18:40.500Z,51.00
2022-07-28T10:21:13.320Z,50.70
2022-07-28T10:23:40.612Z,50.90
2022-07-28T10:26:13.237Z,51.50
2022-07-28T10:28:46.963Z,51.40
2022-07-28T10:31:15.012Z,52.00
2022-07-28T10:33:47.684Z,51.30
2022-07-28T10:36:14.724Z,51.60
2022-07-28T10:38:41.577Z,51.60
2022-07-28T10:41:09.216Z,51.70
2022-07-28T10:43:36.185Z,51.80
2022-07-28T10:46:14.166Z,51.30
2022-07-28T10:48:43.461Z,50.80
2022-07-28T10:51:10.483Z,49.80
2022-07-28T10:54:00.671Z,50.20
2022-07-28T10:56:27.786Z,49.90
2022-07-28T10:58:54.517Z,51.00
2022-07-28T11:01:48.359Z,51.00
2022-07-28T11:04:46.137Z,51.10
2022-07-28T11:07:14.579Z,51.80
2022-07-28T11:09:41.379Z,51.50
2022-07-28T11:12:09.736Z,51.80
2022-07-28T11:14:38.996Z,51.90
2022-07-28T11:17:10.793Z,52.00
2022-07-28T11:20:16.233Z,52.00
2022-07-28T11:22:33.973Z,53.90
2022-07-28T11:25:21.054Z,53.20
2022-07-28T11:27:54.152Z,53.40
2022-07-28T11:30:32.865Z,53.30
2022-07-28T11:33:00.278Z,53.30
2022-07-28T11:35:53.162Z,54.00
2022-07-28T11:38:20.020Z,53.60
2022-07-28T11:40:50.573Z,53.70
2022-07-28T11:43:28.640Z,54.10
2022-07-28T11:46:10.491Z,54.90
2022-07-28T11:48:47.361Z,55.50
2022-07-28T11:51:14.544Z,56.60
2022-07-28T11:53:52.770Z,55.90
2022-07-28T11:56:24.035Z,54.60
2022-07-28T11:58:58.329Z,54.90
2022-07-28T12:01:25.245Z,55.20
2022-07-28T12:03:55.631Z,54.50
2022-07-28T12:06:27.210Z,54.50
2022-07-28T12:09:09.845Z,54.50
2022-07-28T12:11:38.438Z,54.80
2022-07-28T12:14:09.530Z,55.00
2022-07-28T12:16:41.973Z,55.30
2022-07-28T12:19:09.227Z,55.10
2022-07-28T12:21:49.277Z,55.10
2022-07-28T12:24:19.512Z,55.20
2022-07-28T12:26:50.708Z,55.50
2022-07-28T12:29:17.822Z,55.20
2022-07-28T12:32:02.178Z,55.20
2022-07-28T12:34:31.127Z,56.30
2022-07-28T12:37:02.489Z,55.80
2022-07-28T12:39:30.906Z,55.70
2022-07-28T12:42:05.307Z,56.00
2022-07-28T12:44:33.916Z,56.10
2022-07-28T12:47:01.140Z,56.00
2022-07-28T12:49:28.092Z,56.30
2022-07-28T12:51:55.198Z,56.70
2022-07-28T12:54:35.125Z,56.80
2022-07-28T12:57:02.049Z,57.60
2022-07-28T12:59:36.241Z,57.80
2022-07-28T13:02:03.232Z,58.00
2022-07-28T13:04:46.490Z,58.10
2022-07-28T13:07:33.722Z,58.30
2022-07-28T13:10:07.336Z,58.40
2022-07-28T13:12:39.473Z,58.70
2022-07-28T13:15:15.273Z,58.60
2022-07-28T13:17:50.060Z,58.30
2022-07-28T13:20:17.025Z,57.90
2022-07-28T13:22:45.656Z,58.30
2022-07-28T13:25:12.675Z,59.40
2022-07-28T13:27:39.604Z,59.10
2022-07-28T13:30:07.524Z,58.50
2022-07-28T13:32:34.629Z,57.60
2022-07-28T13:35:01.509Z,58.50
2022-07-28T13:37:28.873Z,60.10
2022-07-28T13:39:55.647Z,58.80
2022-07-28T13:42:23.600Z,58.90
2022-07-28T13:44:50.674Z,59.00
2022-07-28T13:47:18.221Z,59.00
2022-07-28T13:49:45.396Z,59.00
2022-07-28T13:52:17.321Z,58.90
2022-07-28T13:55:04.028Z,59.20
2022-07-28T13:57:31.539Z,58.80
2022-07-28T14:00:18.724Z,58.40
2022-07-28T14:02:47.199Z,59.10
2022-07-28T14:05:14.533Z,58.70
2022-07-28T14:07:42.225Z,58.90
2022-07-28T14:10:15.655Z,58.80
2022-07-28T14:12:42.536Z,59.00
2022-07-28T14:15:12.936Z,58.90
2022-07-28T14:17:45.510Z,59.30
2022-07-28T14:20:14.111Z,59.40
2022-07-28T14:22:41.341Z,59.40
2022-07-28T14:25:08.469Z,59.60
2022-07-28T14:27:35.225Z,59.50
2022-07-28T14:30:03.430Z,59.60
2022-07-28T14:32:31.394Z,60.50
2022-07-28T14:34:58.239Z,59.60
2022-07-28T14:37:25.230Z,59.60
2022-07-28T14:39:51.999Z,59.60
2022-07-28T14:42:18.937Z,59.60
2022-07-28T14:44:45.695Z,59.50
2022-07-28T14:47:12.774Z,59.50
2022-07-28T14:49:57.154Z,59.20
2022-07-28T14:52:28.201Z,59.40
2022-07-28T14:54:55.133Z,59.40
2022-07-28T14:57:48.126Z,59.50
2022-07-28T15:00:13.778Z,59.40
2022-07-28T15:02:41.013Z,59.30
2022-07-28T15:05:08.424Z,59.30
2022-07-28T15:07:35.665Z,59.40
2022-07-28T15:10:02.947Z,59.40
2022-07-28T15:12:30.492Z,59.30
2022-07-28T15:14:57.323Z,59.30
2022-07-28T15:17:24.098Z,59.30
2022-07-28T15:19:50.876Z,59.20
2022-07-28T15:22:17.636Z,57.70
2022-07-28T15:24:45.810Z,58.10
2022-07-28T15:27:12.710Z,58.60
2022-07-28T15:29:39.532Z,58.70
2022-07-28T15:32:10.799Z,58.60
2022-07-28T15:34:39.898Z,58.70
2022-07-28T15:37:06.908Z,59.10
2022-07-28T15:39:34.114Z,58.90
2022-07-28T15:42:01.388Z,58.60
2022-07-28T15:44:29.855Z,59.50
2022-07-28T15:46:56.782Z,59.70
2022-07-28T15:49:23.716Z,59.90
2022-07-28T15:51:50.554Z,60.40
2022-07-28T15:54:18.077Z,60.00
2022-07-28T15:56:45.175Z,59.90
2022-07-28T15:59:12.034Z,60.10
2022-07-28T16:01:45.238Z,60.40
2022-07-28T16:04:12.751Z,60.70
2022-07-28T16:06:58.374Z,60.90
2022-07-28T16:09:25.185Z,60.90
2022-07-28T16:12:14.462Z,60.90
2022-07-28T16:14:42.308Z,60.70
2022-07-28T16:17:10.768Z,60.60
2022-07-28T16:19:49.133Z,60.60
2022-07-28T16:22:16.579Z,60.60
2022-07-28T16:24:43.401Z,60.60
2022-07-28T16:27:10.735Z,60.70
2022-07-28T16:29:37.989Z,60.40
2022-07-28T16:32:05.410Z,59.90
2022-07-28T16:34:32.273Z,58.00
2022-07-28T16:36:59.025Z,57.60
2022-07-28T16:39:25.808Z,57.50
2022-07-28T16:41:53.201Z,58.00
2022-07-28T16:44:20.228Z,58.30
2022-07-28T16:46:47.293Z,58.40
2022-07-28T16:49:16.121Z,58.60
2022-07-28T16:51:43.027Z,58.80
2022-07-28T16:54:09.878Z,58.90
2022-07-28T16:56:36.652Z,59.10
2022-07-28T16:59:03.484Z,59.30
2022-07-28T17:01:30.328Z,59.20
2022-07-28T17:03:57.116Z,59.50
2022-07-28T17:06:23.980Z,59.50
2022-07-28T17:08:50.742Z,59.50
2022-07-28T17:11:17.653Z,59.50
2022-07-28T17:13:45.513Z,59.60
2022-07-28T17:16:13.164Z,59.70
2022-07-28T17:18:40.126Z,59.60
2022-07-28T17:21:06.904Z,59.70
2022-07-28T17:23:35.742Z,59.80
2022-07-28T17:28:53.294Z,59.80
2022-07-28T17:31:20.160Z,60.00
2022-07-28T17:33:47.012Z,59.90
2022-07-28T17:36:13.824Z,60.00
2022-07-28T17:38:40.597Z,60.00
2022-07-28T17:41:09.188Z,60.00
2022-07-28T17:43:39.903Z,59.90
2022-07-28T17:46:10.521Z,59.90
2022-07-28T17:48:38.829Z,60.00
2022-07-28T17:51:05.867Z,60.10
2022-07-28T17:53:33.622Z,60.10
2022-07-28T17:56:06.990Z,60.10
2022-07-28T17:58:35.858Z,60.20
2022-07-28T18:01:12.026Z,60.10
2022-07-28T18:03:59.716Z,60.40
2022-07-28T18:06:35.225Z,60.20
2022-07-28T18:09:07.994Z,60.30
2022-07-28T18:11:57.101Z,60.40
2022-07-28T18:14:28.530Z,60.40
2022-07-28T18:16:55.548Z,60.50
2022-07-28T18:19:22.337Z,60.50
2022-07-28T18:21:49.150Z,60.40
2022-07-28T18:24:16.489Z,60.60
2022-07-28T18:26:43.690Z,60.60
2022-07-28T18:29:10.465Z,60.60
2022-07-28T18:31:43.822Z,60.70
2022-07-28T18:34:13.227Z,60.70
2022-07-28T18:36:40.286Z,60.80
2022-07-28T18:39:07.111Z,60.90
2022-07-28T18:41:34.698Z,60.90
2022-07-28T18:44:15.531Z,60.90
2022-07-28T18:46:42.759Z,61.00
2022-07-28T18:49:09.646Z,61.00
2022-07-28T18:51:36.818Z,61.10
2022-07-28T18:54:03.818Z,60.90
2022-07-28T18:56:31.575Z,61.00
2022-07-28T18:58:58.341Z,61.10
2022-07-28T19:01:25.133Z,61.10
2022-07-28T19:03:52.009Z,61.00
2022-07-28T19:06:18.846Z,50.80
2022-07-28T19:08:45.597Z,51.80
2022-07-28T19:11:14.260Z,50.80
2022-07-28T19:13:44.262Z,50.80
2022-07-28T19:16:11.145Z,50.30
2022-07-28T19:18:38.013Z,50.90
2022-07-28T19:21:04.824Z,50.80
2022-07-28T19:23:31.591Z,50.90
2022-07-28T19:25:58.412Z,52.00
2022-07-28T19:28:25.243Z,51.10
2022-07-28T19:30:52.810Z,51.70
2022-07-28T19:33:21.769Z,50.30
2022-07-28T19:35:51.338Z,51.00
2022-07-28T19:38:18.099Z,50.10
2022-07-28T19:40:44.915Z,48.20
2022-07-28T19:43:11.901Z,47.60
2022-07-28T19:45:38.673Z,48.20
2022-07-28T19:48:07.251Z,48.20
2022-07-28T19:50:35.081Z,48.90
2022-07-28T19:53:02.277Z,48.70
2022-07-28T19:55:32.211Z,48.50
2022-07-28T19:58:01.681Z,48.50
2022-07-28T20:00:28.485Z,48.60
2022-07-28T20:02:55.598Z,48.30
2022-07-28T20:05:22.530Z,48.60
2022-07-28T20:07:49.350Z,48.60
2022-07-28T20:10:16.095Z,49.40
2022-07-28T20:12:42.958Z,49.40
2022-07-28T20:15:10.017Z,49.20
2022-07-28T20:17:38.900Z,49.70
2022-07-28T20:20:11.759Z,49.60
2022-07-28T20:22:39.032Z,49.60
2022-07-28T20:25:09.326Z,51.60
2022-07-28T20:27:40.289Z,50.90
2022-07-28T20:30:12.227Z,50.50
2022-07-28T20:32:40.541Z,50.90
2022-07-28T20:35:09.511Z,50.60
2022-07-28T20:37:37.697Z,50.70
2022-07-28T20:40:06.255Z,50.80
2022-07-28T20:42:33.491Z,51.00
2022-07-28T20:45:00.287Z,51.10
2022-07-28T20:47:27.965Z,51.10
2022-07-28T20:49:55.310Z,51.00
2022-07-28T20:52:22.299Z,51.10
2022-07-28T20:54:53.928Z,51.80
2022-07-28T20:57:21.747Z,51.40
2022-07-28T20:59:51.122Z,52.00
2022-07-28T21:02:19.251Z,52.30
2022-07-28T21:04:46.092Z,52.50
2022-07-28T21:07:18.096Z,52.80
2022-07-28T21:10:06.060Z,53.00
2022-07-28T21:12:33.865Z,53.20
2022-07-28T21:15:00.691Z,53.20
2022-07-28T21:17:27.472Z,53.40
2022-07-28T21:19:54.225Z,53.50
2022-07-28T21:22:22.739Z,53.50
2022-07-28T21:24:54.704Z,53.60
2022-07-28T21:27:22.400Z,53.70
2022-07-28T21:29:49.189Z,53.80
2022-07-28T21:32:15.980Z,53.90
2022-07-28T21:34:42.745Z,54.20
2022-07-28T21:37:11.602Z,54.30
2022-07-28T21:39:39.095Z,54.40
2022-07-28T21:42:08.546Z,54.60
2022-07-28T21:44:38.920Z,54.60
2022-07-28T21:47:05.780Z,54.90
2022-07-28T21:49:32.792Z,54.90
2022-07-28T21:51:59.730Z,55.20
2022-07-28T21:54:26.565Z,55.20
2022-07-28T21:56:53.346Z,55.10
2022-07-28T21:59:20.164Z,55.20
2022-07-28T22:01:47.535Z,55.30
2022-07-28T22:04:14.771Z,55.30
2022-07-28T22:06:46.071Z,55.60
2022-07-28T22:09:13.883Z,55.60
2022-07-28T22:11:40.664Z,55.90
2022-07-28T22:14:07.424Z,55.90
2022-07-28T22:16:34.246Z,56.10
2022-07-28T22:19:01.104Z,56.20
2022-07-28T22:21:27.856Z,56.20
2022-07-28T22:23:54.637Z,56.40
2022-07-28T22:26:21.430Z,56.40
2022-07-28T22:28:48.336Z,56.30
2022-07-28T22:31:15.191Z,56.40
2022-07-28T22:33:41.990Z,56.40
2022-07-28T22:36:09.132Z,56.50
2022-07-28T22:38:36.265Z,56.60
2022-07-28T22:41:03.183Z,56.70
2022-07-28T22:43:33.301Z,56.80
2022-07-28T22:46:00.237Z,57.00
2022-07-28T22:48:27.120Z,57.10
2022-07-28T22:50:53.919Z,57.10
2022-07-28T22:53:20.678Z,57.20
2022-07-28T22:55:47.485Z,57.30
2022-07-28T22:58:14.287Z,57.30
2022-07-28T23:00:41.124Z,57.20
2022-07-28T23:03:07.989Z,57.10
2022-07-28T23:05:39.099Z,57.10
2022-07-28T23:08:06.360Z,57.10
2022-07-28T23:10:33.368Z,57.90
2022-07-28T23:13:00.366Z,57.50
2022-07-28T23:15:40.503Z,57.60
2022-07-28T23:18:10.214Z,57.70
2022-07-28T23:20:38.233Z,57.80
2022-07-28T23:23:05.114Z,57.80
2022-07-28T23:25:32.075Z,57.90
2022-07-28T23:27:58.947Z,57.90
2022-07-28T23:30:25.744Z,58.00
2022-07-28T23:32:53.164Z,58.00
2022-07-28T23:35:20.037Z,57.90
2022-07-28T23:37:46.840Z,58.00
2022-07-28T23:40:13.820Z,58.00
2022-07-28T23:42:40.664Z,57.90
2022-07-28T23:45:07.931Z,58.20
2022-07-28T23:47:34.860Z,58.30
2022-07-28T23:50:02.407Z,58.40
2022-07-28T23:52:29.212Z,58.50
2022-07-28T23:54:56.183Z,59.10
2022-07-28T23:57:23.025Z,58.60
2022-07-28T23:59:49.842Z,58.60
